createdAt,value
2019-03-20T00:01:03.430Z,9.61
2019-03-20T00:03:34.840Z,9.70
2019-03-20T00:06:06.372Z,9.56
2019-03-20T00:08:37.808Z,9.39
2019-03-20T00:11:09.544Z,9.37
2019-03-20T00:13:41.813Z,9.23
2019-03-20T00:16:13.546Z,9.31
2019-03-20T00:18:45.002Z,9.41
2019-03-20T00:21:16.599Z,9.29
2019-03-20T00:23:48.208Z,9.27
2019-03-20T00:26:19.828Z,9.30
2019-03-20T00:28:51.341Z,9.33
2019-03-20T00:31:23.059Z,9.38
2019-03-20T00:33:54.580Z,9.34
2019-03-20T00:36:26.272Z,9.21
2019-03-20T00:38:57.790Z,9.12
2019-03-20T00:41:29.365Z,9.05
2019-03-20T00:44:00.822Z,8.94
2019-03-20T00:46:32.194Z,8.94
2019-03-20T00:49:03.406Z,8.84
2019-03-20T00:51:34.842Z,8.76
2019-03-20T00:54:06.276Z,8.79
2019-03-20T00:56:38.602Z,8.84
2019-03-20T00:59:10.065Z,8.77
2019-03-20T01:01:41.546Z,8.73
2019-03-20T01:04:12.856Z,8.49
2019-03-20T01:06:44.368Z,8.46
2019-03-20T01:09:16.689Z,8.45
2019-03-20T01:11:47.963Z,8.52
2019-03-20T01:14:19.288Z,8.38
2019-03-20T01:16:50.716Z,8.52
2019-03-20T01:19:22.101Z,8.54
2019-03-20T01:21:53.756Z,8.48
2019-03-20T01:24:25.467Z,8.59
2019-03-20T01:26:56.803Z,8.59
2019-03-20T01:29:28.196Z,8.57
2019-03-20T01:31:59.613Z,8.55
2019-03-20T01:34:31.008Z,8.54
2019-03-20T01:37:02.733Z,8.65
2019-03-20T01:39:34.143Z,8.51
2019-03-20T01:42:05.537Z,8.50
2019-03-20T01:44:36.735Z,8.49
2019-03-20T01:47:07.984Z,8.55
2019-03-20T01:49:39.283Z,8.42
2019-03-20T01:52:10.830Z,8.39
2019-03-20T01:54:42.118Z,8.39
2019-03-20T01:57:13.373Z,8.35
2019-03-20T01:59:44.899Z,8.32
2019-03-20T02:02:16.310Z,8.25
2019-03-20T02:04:47.480Z,8.17
2019-03-20T02:07:18.934Z,8.18
2019-03-20T02:09:50.311Z,8.26
2019-03-20T02:12:22.209Z,8.09
2019-03-20T02:14:53.512Z,7.91
2019-03-20T02:17:25.168Z,7.89
2019-03-20T02:19:57.493Z,7.96
2019-03-20T02:22:28.743Z,7.84
2019-03-20T02:25:00.403Z,7.81
2019-03-20T02:27:31.976Z,7.72
2019-03-20T02:30:03.453Z,7.70
2019-03-20T02:32:35.284Z,7.76
2019-03-20T02:35:07.348Z,7.76
2019-03-20T02:37:38.704Z,7.59
2019-03-20T02:40:10.604Z,7.63
2019-03-20T02:42:42.011Z,7.48
2019-03-20T02:45:13.750Z,7.46
2019-03-20T02:47:45.248Z,7.39
2019-03-20T02:50:16.770Z,7.41
2019-03-20T02:52:48.154Z,7.33
2019-03-20T02:55:19.466Z,7.28
2019-03-20T02:57:50.977Z,7.26
2019-03-20T03:00:22.601Z,7.20
2019-03-20T03:02:54.415Z,7.12
2019-03-20T03:05:25.835Z,7.18
2019-03-20T03:07:57.382Z,7.08
2019-03-20T03:10:28.747Z,7.01
2019-03-20T03:13:00.318Z,6.95
2019-03-20T03:15:31.730Z,6.87
2019-03-20T03:18:03.017Z,6.88
2019-03-20T03:20:34.230Z,6.72
2019-03-20T03:23:05.593Z,6.75
2019-03-20T03:25:37.063Z,6.73
2019-03-20T03:28:08.289Z,6.61
2019-03-20T03:30:39.654Z,6.71
2019-03-20T03:33:10.991Z,6.64
2019-03-20T03:35:42.307Z,6.57
2019-03-20T03:38:13.879Z,6.60
2019-03-20T03:40:45.735Z,6.67
2019-03-20T03:43:17.281Z,6.70
2019-03-20T03:45:48.845Z,6.76
2019-03-20T03:48:20.365Z,6.56
2019-03-20T03:50:51.927Z,6.50
2019-03-20T03:53:23.500Z,6.58
2019-03-20T03:55:54.850Z,6.50
2019-03-20T03:58:26.188Z,6.49
2019-03-20T04:00:57.568Z,6.42
2019-03-20T04:03:28.874Z,6.42
2019-03-20T04:06:00.207Z,6.32
2019-03-20T04:08:31.643Z,6.44
2019-03-20T04:11:03.375Z,6.50
2019-03-20T04:13:34.957Z,6.46
2019-03-20T04:16:06.372Z,6.47
2019-03-20T04:18:37.712Z,6.43
2019-03-20T04:21:09.094Z,6.48
2019-03-20T04:23:40.353Z,6.58
2019-03-20T04:26:11.946Z,6.40
2019-03-20T04:28:43.246Z,6.36
2019-03-20T04:31:14.538Z,6.20
2019-03-20T04:33:45.975Z,6.28
2019-03-20T04:36:17.309Z,6.24
2019-03-20T04:38:48.543Z,6.32
2019-03-20T04:41:19.838Z,6.36
2019-03-20T04:43:51.109Z,6.28
2019-03-20T04:46:22.427Z,6.38
2019-03-20T04:48:53.687Z,6.42
2019-03-20T04:51:25.019Z,6.37
2019-03-20T04:53:56.367Z,6.37
2019-03-20T04:56:27.708Z,6.33
2019-03-20T04:58:58.937Z,6.48
2019-03-20T05:01:30.277Z,6.33
2019-03-20T05:04:01.803Z,6.41
2019-03-20T05:06:33.193Z,6.32
2019-03-20T05:09:05.603Z,6.17
2019-03-20T05:11:36.866Z,6.16
2019-03-20T05:14:08.428Z,6.31
2019-03-20T05:16:39.773Z,6.36
2019-03-20T05:19:11.133Z,6.42
2019-03-20T05:21:42.429Z,6.46
2019-03-20T05:24:13.667Z,6.38
2019-03-20T05:26:44.970Z,6.50
2019-03-20T05:29:16.218Z,6.59
2019-03-20T05:31:48.558Z,6.80
2019-03-20T05:34:19.836Z,7.16
2019-03-20T05:36:51.243Z,7.27
2019-03-20T05:39:22.538Z,7.62
2019-03-20T05:41:53.888Z,7.84
2019-03-20T05:44:25.162Z,8.29
2019-03-20T05:46:56.794Z,8.38
2019-03-20T05:49:28.029Z,8.52
2019-03-20T05:51:59.261Z,8.78
2019-03-20T05:54:30.893Z,8.52
2019-03-20T05:57:02.229Z,8.61
2019-03-20T05:59:33.698Z,8.96
2019-03-20T06:02:05.170Z,9.17
2019-03-20T06:04:36.702Z,9.31
2019-03-20T06:07:08.081Z,9.63
2019-03-20T06:09:39.385Z,9.80
2019-03-20T06:12:11.124Z,9.84
2019-03-20T06:14:42.521Z,9.48
2019-03-20T06:17:14.119Z,9.89
2019-03-20T06:19:45.970Z,10.03
2019-03-20T06:22:17.630Z,10.11
2019-03-20T06:24:49.048Z,10.41
2019-03-20T06:27:20.661Z,10.42
2019-03-20T06:29:53.734Z,10.50
2019-03-20T06:32:25.293Z,10.79
2019-03-20T06:34:56.922Z,10.64
2019-03-20T06:37:32.461Z,10.78
2019-03-20T06:40:01.791Z,10.83
2019-03-20T06:42:33.550Z,10.91
2019-03-20T06:45:05.657Z,10.99
2019-03-20T06:47:37.361Z,10.98
2019-03-20T06:50:11.884Z,11.23
2019-03-20T06:52:43.326Z,11.55
2019-03-20T06:55:14.970Z,11.49
2019-03-20T06:57:46.633Z,11.70
2019-03-20T07:01:01.591Z,11.60
2019-03-20T07:03:53.122Z,11.84
2019-03-20T07:06:47.635Z,12.18
2019-03-20T07:09:55.843Z,12.05
2019-03-20T07:12:27.057Z,12.21
2019-03-20T07:14:58.625Z,12.27
2019-03-20T07:17:30.620Z,12.33
2019-03-20T07:20:01.844Z,12.26
2019-03-20T07:22:33.389Z,12.43
2019-03-20T07:25:04.711Z,12.78
2019-03-20T07:27:35.760Z,12.78
2019-03-20T07:30:07.695Z,13.07
2019-03-20T07:32:39.013Z,13.08
2019-03-20T07:35:11.134Z,13.00
2019-03-20T07:37:42.254Z,13.01
2019-03-20T07:40:13.397Z,13.24
2019-03-20T07:42:44.611Z,13.09
2019-03-20T07:45:16.037Z,13.03
2019-03-20T07:47:47.115Z,13.40
2019-03-20T07:50:18.410Z,13.42
2019-03-20T07:52:49.727Z,13.54
2019-03-20T07:55:20.686Z,13.57
2019-03-20T07:57:52.214Z,13.74
2019-03-20T08:00:23.168Z,13.73
2019-03-20T08:02:54.486Z,13.25
2019-03-20T08:05:29.386Z,13.79
2019-03-20T08:08:07.335Z,13.96
2019-03-20T08:10:32.375Z,14.03
2019-03-20T08:13:03.408Z,14.07
2019-03-20T08:15:34.554Z,14.27
2019-03-20T08:18:05.993Z,14.27
2019-03-20T08:20:37.185Z,14.32
2019-03-20T08:23:08.246Z,14.06
2019-03-20T08:25:39.332Z,14.35
2019-03-20T08:28:10.375Z,14.13
2019-03-20T08:30:41.659Z,14.33
2019-03-20T08:33:12.731Z,14.47
2019-03-20T08:35:43.950Z,14.78
2019-03-20T08:38:18.473Z,14.86
2019-03-20T08:40:47.703Z,14.99
2019-03-20T08:43:18.686Z,15.17
2019-03-20T08:45:49.923Z,15.43
2019-03-20T08:48:21.023Z,15.49
2019-03-20T08:50:52.409Z,15.03
2019-03-20T08:53:23.662Z,15.02
2019-03-20T08:55:55.142Z,15.42
2019-03-20T08:58:26.493Z,15.63
2019-03-20T09:00:57.924Z,15.61
2019-03-20T09:03:29.256Z,16.28
2019-03-20T09:06:00.546Z,15.70
2019-03-20T09:08:31.883Z,15.70
2019-03-20T09:11:03.018Z,15.67
2019-03-20T09:13:34.150Z,16.02
2019-03-20T09:16:05.513Z,16.19
2019-03-20T09:18:36.839Z,16.24
2019-03-20T09:21:08.334Z,16.24
2019-03-20T09:23:40.820Z,16.23
2019-03-20T09:26:12.134Z,16.52
2019-03-20T09:28:43.249Z,16.25
2019-03-20T09:31:14.399Z,15.90
2019-03-20T09:33:45.426Z,16.59
2019-03-20T09:36:16.399Z,17.04
2019-03-20T09:38:47.338Z,16.97
2019-03-20T09:41:18.606Z,16.62
2019-03-20T09:43:49.719Z,16.60
2019-03-20T09:46:21.701Z,16.89
2019-03-20T09:48:52.899Z,17.31
2019-03-20T09:51:24.219Z,17.63
2019-03-20T09:53:55.519Z,17.63
2019-03-20T09:56:27.942Z,17.25
2019-03-20T09:58:58.953Z,17.45
2019-03-20T10:01:30.220Z,17.77
2019-03-20T10:04:01.275Z,17.77
2019-03-20T10:06:32.734Z,17.90
2019-03-20T10:09:04.066Z,17.31
2019-03-20T10:11:35.236Z,17.31
2019-03-20T10:14:06.482Z,17.97
2019-03-20T10:16:37.880Z,17.97
2019-03-20T10:19:09.175Z,18.21
2019-03-20T10:21:40.721Z,18.52
2019-03-20T10:24:12.047Z,18.36
2019-03-20T10:26:43.473Z,18.73
2019-03-20T10:29:14.536Z,19.01
2019-03-20T10:31:45.788Z,18.54
2019-03-20T10:34:17.193Z,18.83
2019-03-20T10:36:48.167Z,19.01
2019-03-20T10:39:19.211Z,18.71
2019-03-20T10:41:50.369Z,19.02
2019-03-20T10:44:21.534Z,19.06
2019-03-20T10:46:53.850Z,19.22
2019-03-20T10:49:25.983Z,18.89
2019-03-20T10:51:57.286Z,18.89
2019-03-20T10:54:28.526Z,18.82
2019-03-20T10:56:59.881Z,18.75
2019-03-20T10:59:31.351Z,19.13
2019-03-20T11:02:02.926Z,19.37
2019-03-20T11:04:35.048Z,19.79
2019-03-20T11:07:06.509Z,19.88
2019-03-20T11:09:37.692Z,20.20
2019-03-20T11:12:08.989Z,19.50
2019-03-20T11:14:40.501Z,19.30
2019-03-20T11:17:11.798Z,19.02
2019-03-20T11:19:42.827Z,19.19
2019-03-20T11:22:18.675Z,19.30
2019-03-20T11:24:47.224Z,19.42
2019-03-20T11:27:18.395Z,19.50
2019-03-20T11:29:49.824Z,19.49
2019-03-20T11:32:21.412Z,19.82
2019-03-20T11:34:52.863Z,19.54
2019-03-20T11:37:24.246Z,19.92
2019-03-20T11:39:55.373Z,19.86
2019-03-20T11:42:26.395Z,19.84
2019-03-20T11:44:57.498Z,20.11
2019-03-20T11:47:28.774Z,20.30
2019-03-20T11:50:01.064Z,19.95
2019-03-20T11:52:32.371Z,19.76
2019-03-20T11:55:03.780Z,19.89
2019-03-20T11:57:35.305Z,20.33
2019-03-20T12:00:07.536Z,20.56
2019-03-20T12:02:39.003Z,20.39
2019-03-20T12:05:10.172Z,20.64
2019-03-20T12:07:41.423Z,20.51
2019-03-20T12:10:15.379Z,20.53
2019-03-20T12:12:46.372Z,20.28
2019-03-20T12:15:17.914Z,20.07
2019-03-20T12:17:49.249Z,19.34
2019-03-20T12:20:20.675Z,19.11
2019-03-20T12:22:51.987Z,19.05
2019-03-20T12:25:28.076Z,18.78
2019-03-20T12:27:59.254Z,18.86
2019-03-20T12:30:31.033Z,18.61
2019-03-20T12:33:02.292Z,18.32
2019-03-20T12:35:33.789Z,18.02
2019-03-20T12:38:13.801Z,18.06
2019-03-20T12:40:37.983Z,18.16
2019-03-20T12:43:09.240Z,18.26
2019-03-20T12:45:40.727Z,18.14
2019-03-20T12:48:11.815Z,18.17
2019-03-20T12:50:42.947Z,18.15
2019-03-20T12:53:14.028Z,18.15
2019-03-20T12:55:45.250Z,18.29
2019-03-20T12:58:16.251Z,18.17
2019-03-20T13:03:17.321Z,17.84
2019-03-20T13:05:48.387Z,17.68
2019-03-20T13:08:19.335Z,17.64
2019-03-20T13:10:50.376Z,17.59
2019-03-20T13:13:21.432Z,17.26
2019-03-20T13:15:52.843Z,17.11
2019-03-20T13:18:23.817Z,17.28
2019-03-20T13:20:54.876Z,17.10
2019-03-20T13:23:28.237Z,16.89
2019-03-20T13:26:00.887Z,16.90
2019-03-20T13:28:32.364Z,16.98
2019-03-20T13:31:07.267Z,17.04
2019-03-20T13:33:38.377Z,16.99
2019-03-20T13:36:09.800Z,17.02
2019-03-20T13:38:40.957Z,17.01
2019-03-20T13:41:12.163Z,16.92
2019-03-20T13:43:43.219Z,16.70
2019-03-20T13:46:14.489Z,16.75
2019-03-20T13:48:45.871Z,16.77
2019-03-20T13:51:16.796Z,16.65
2019-03-20T13:53:47.908Z,16.56
2019-03-20T13:56:19.168Z,16.38
2019-03-20T13:58:52.328Z,16.31
2019-03-20T14:01:23.511Z,16.31
2019-03-20T14:03:54.873Z,16.38
2019-03-20T14:06:25.829Z,16.34
2019-03-20T14:08:56.911Z,16.28
2019-03-20T14:11:27.948Z,16.17
2019-03-20T14:13:59.283Z,16.10
2019-03-20T14:16:30.535Z,16.25
2019-03-20T14:19:01.565Z,16.25
2019-03-20T14:21:32.745Z,16.27
2019-03-20T14:24:03.988Z,16.18
2019-03-20T14:26:35.182Z,16.04
2019-03-20T14:29:06.531Z,16.11
2019-03-20T14:31:37.617Z,15.99
2019-03-20T14:34:09.040Z,15.99
2019-03-20T14:36:40.204Z,15.88
2019-03-20T14:39:11.438Z,15.83
2019-03-20T14:41:42.575Z,15.77
2019-03-20T14:44:14.599Z,15.77
2019-03-20T14:46:45.785Z,15.65
2019-03-20T14:49:16.828Z,15.64
2019-03-20T14:51:47.974Z,15.64
2019-03-20T14:54:18.966Z,15.53
2019-03-20T14:56:49.929Z,15.60
2019-03-20T14:59:20.874Z,15.50
2019-03-20T15:01:52.127Z,15.47
2019-03-20T15:04:23.362Z,15.41
2019-03-20T15:06:54.474Z,15.26
2019-03-20T15:09:25.777Z,15.26
2019-03-20T15:11:57.045Z,15.07
2019-03-20T15:14:28.248Z,15.00
2019-03-20T15:16:59.498Z,15.03
2019-03-20T15:19:30.767Z,15.08
2019-03-20T15:22:02.103Z,15.08
2019-03-20T15:24:33.271Z,15.01
2019-03-20T15:27:04.810Z,14.84
2019-03-20T15:29:37.277Z,14.83
2019-03-20T15:32:08.397Z,14.72
2019-03-20T15:34:39.371Z,14.66
2019-03-20T15:37:10.534Z,14.71
2019-03-20T15:39:41.781Z,14.67
2019-03-20T15:42:12.957Z,14.60
2019-03-20T15:44:44.611Z,14.70
2019-03-20T15:47:15.855Z,14.70
2019-03-20T15:49:46.826Z,14.62
2019-03-20T15:52:18.127Z,14.44
2019-03-20T15:54:49.586Z,14.57
2019-03-20T15:57:20.933Z,14.53
2019-03-20T15:59:52.182Z,14.44
2019-03-20T16:02:23.759Z,14.44
2019-03-20T16:04:54.729Z,14.38
2019-03-20T16:07:26.049Z,14.24
2019-03-20T16:09:57.389Z,14.14
2019-03-20T16:12:28.701Z,13.99
2019-03-20T16:15:00.324Z,13.99
2019-03-20T16:17:31.240Z,14.00
2019-03-20T16:20:02.344Z,13.89
2019-03-20T16:22:34.560Z,13.76
2019-03-20T16:25:06.344Z,13.74
2019-03-20T16:27:37.288Z,13.69
2019-03-20T16:30:11.213Z,13.62
2019-03-20T16:32:42.456Z,13.45
2019-03-20T16:35:13.622Z,13.30
2019-03-20T16:37:44.613Z,13.27
2019-03-20T16:40:20.111Z,13.23
2019-03-20T16:42:51.451Z,13.29
2019-03-20T16:45:24.687Z,13.21
2019-03-20T16:47:55.755Z,13.06
2019-03-20T16:50:27.075Z,13.00
2019-03-20T16:52:58.619Z,13.12
2019-03-20T16:55:29.884Z,13.02
2019-03-20T16:58:00.909Z,12.98
2019-03-20T17:00:32.174Z,12.86
2019-03-20T17:03:03.328Z,12.84
2019-03-20T17:05:34.311Z,12.70
2019-03-20T17:08:05.955Z,12.68
2019-03-20T17:10:38.612Z,12.63
2019-03-20T17:13:09.672Z,12.59
2019-03-20T17:15:40.677Z,12.58
2019-03-20T17:18:11.943Z,12.44
2019-03-20T17:20:43.468Z,12.41
2019-03-20T17:23:14.505Z,12.38
2019-03-20T17:25:45.911Z,12.44
2019-03-20T17:28:17.141Z,12.44
2019-03-20T17:30:48.646Z,12.39
2019-03-20T17:33:19.762Z,12.37
2019-03-20T17:35:51.285Z,12.37
2019-03-20T17:38:22.253Z,12.42
2019-03-20T17:40:53.674Z,12.38
2019-03-20T17:43:24.886Z,12.43
2019-03-20T17:45:56.615Z,12.36
2019-03-20T17:48:27.882Z,12.39
2019-03-20T17:50:59.414Z,12.25
2019-03-20T17:53:30.664Z,12.24
2019-03-20T17:56:02.062Z,12.23
2019-03-20T17:58:33.359Z,12.15
2019-03-20T18:01:05.017Z,12.04
2019-03-20T18:03:36.311Z,12.11
2019-03-20T18:06:07.677Z,12.06
2019-03-20T18:08:39.456Z,12.05
2019-03-20T18:11:10.952Z,12.07
2019-03-20T18:13:42.241Z,11.99
2019-03-20T18:16:13.998Z,12.04
2019-03-20T18:18:44.929Z,12.11
2019-03-20T18:21:16.468Z,12.13
2019-03-20T18:23:47.989Z,12.01
2019-03-20T18:26:19.376Z,11.90
2019-03-20T18:28:50.773Z,11.92
2019-03-20T18:31:22.114Z,11.83
2019-03-20T18:33:53.463Z,11.75
2019-03-20T18:36:25.732Z,11.74
2019-03-20T18:38:57.467Z,11.78
2019-03-20T18:41:29.039Z,11.85
2019-03-20T18:44:01.435Z,11.77
2019-03-20T18:46:32.677Z,11.84
2019-03-20T18:49:04.499Z,11.81
2019-03-20T18:51:35.863Z,11.86
2019-03-20T18:54:07.450Z,11.74
2019-03-20T18:56:38.897Z,11.81
2019-03-20T18:59:10.606Z,11.77
2019-03-20T19:01:41.868Z,11.76
2019-03-20T19:04:12.944Z,11.81
2019-03-20T19:06:44.350Z,11.80
2019-03-20T19:09:15.859Z,11.77
2019-03-20T19:11:47.582Z,11.78
2019-03-20T19:14:20.363Z,11.77
2019-03-20T19:16:52.042Z,11.85
2019-03-20T19:19:23.627Z,11.84
2019-03-20T19:21:55.165Z,11.85
2019-03-20T19:24:26.438Z,11.80
2019-03-20T19:26:58.584Z,11.73
2019-03-20T19:29:29.828Z,11.72
2019-03-20T19:32:01.154Z,11.65
2019-03-20T19:34:32.575Z,11.73
2019-03-20T19:37:03.788Z,11.64
2019-03-20T19:39:35.213Z,11.59
2019-03-20T19:42:34.636Z,11.66
2019-03-20T19:45:30.458Z,11.64
2019-03-20T19:48:48.929Z,11.64
2019-03-20T19:52:11.556Z,11.65
2019-03-20T19:54:48.627Z,11.64
2019-03-20T19:57:31.262Z,11.64
2019-03-20T20:00:05.143Z,11.60
2019-03-20T20:03:21.694Z,11.61
2019-03-20T20:05:53.091Z,11.55
2019-03-20T20:08:25.486Z,11.61
2019-03-20T20:10:56.735Z,11.58
2019-03-20T20:13:28.012Z,11.54
2019-03-20T20:15:59.267Z,11.60
2019-03-20T20:18:30.631Z,11.59
2019-03-20T20:21:02.018Z,11.61
2019-03-20T20:23:34.487Z,11.71
2019-03-20T20:26:06.031Z,11.69
2019-03-20T20:28:37.424Z,11.63
2019-03-20T20:31:08.775Z,11.64
2019-03-20T20:33:40.047Z,11.72
2019-03-20T20:36:11.630Z,11.68
2019-03-20T20:38:42.875Z,11.70
2019-03-20T20:41:14.464Z,11.74
2019-03-20T20:43:45.877Z,11.80
2019-03-20T20:46:17.494Z,11.68
2019-03-20T20:48:48.772Z,11.63
2019-03-20T20:51:19.964Z,11.70
2019-03-20T20:53:51.251Z,11.69
2019-03-20T20:56:22.839Z,11.61
2019-03-20T20:58:54.707Z,11.59
2019-03-20T21:01:26.979Z,11.59
2019-03-20T21:03:58.039Z,11.61
2019-03-20T21:06:29.630Z,11.71
2019-03-20T21:09:01.323Z,11.60
2019-03-20T21:11:34.579Z,11.63
2019-03-20T21:14:05.775Z,11.74
2019-03-20T21:16:38.607Z,11.79
2019-03-20T21:19:34.205Z,11.80
2019-03-20T21:22:43.473Z,11.82
2019-03-20T21:25:16.781Z,11.81
2019-03-20T21:28:32.865Z,11.83
2019-03-20T21:31:23.679Z,11.91
2019-03-20T21:34:34.013Z,11.81
2019-03-20T21:37:28.446Z,11.73
2019-03-20T21:40:00.754Z,11.69
2019-03-20T21:43:08.530Z,11.61
2019-03-20T21:46:28.055Z,11.65
2019-03-20T21:48:59.940Z,11.71
2019-03-20T21:51:32.108Z,11.59
2019-03-20T21:54:41.797Z,11.55
2019-03-20T21:57:52.992Z,11.60
2019-03-20T22:01:18.458Z,11.68
2019-03-20T22:03:50.369Z,11.52
2019-03-20T22:06:56.750Z,11.72
2019-03-20T22:10:03.410Z,11.65
2019-03-20T22:12:50.161Z,11.38
2019-03-20T22:15:54.975Z,11.54
2019-03-20T22:19:01.345Z,11.41
2019-03-20T22:22:09.081Z,11.39
2019-03-20T22:25:30.460Z,11.55
2019-03-20T22:29:03.515Z,11.55
2019-03-20T22:31:36.769Z,11.54
2019-03-20T22:34:38.050Z,11.31
2019-03-20T22:37:10.178Z,11.39
2019-03-20T22:40:29.992Z,11.34
2019-03-20T22:43:39.110Z,11.18
2019-03-20T22:46:44.059Z,11.06
2019-03-20T22:50:04.150Z,11.15
2019-03-20T22:53:10.847Z,11.11
2019-03-20T22:56:00.075Z,10.98
2019-03-20T22:58:50.471Z,11.01
2019-03-20T23:01:36.969Z,10.92
2019-03-20T23:04:13.355Z,10.93
2019-03-20T23:06:45.335Z,10.98
2019-03-20T23:09:17.116Z,10.92
2019-03-20T23:11:49.006Z,10.91
2019-03-20T23:14:21.025Z,10.84
2019-03-20T23:16:52.950Z,10.73
2019-03-20T23:19:25.127Z,10.54
2019-03-20T23:21:56.964Z,10.65
2019-03-20T23:24:28.815Z,10.48
2019-03-20T23:27:02.138Z,10.47
2019-03-20T23:29:34.103Z,10.48
2019-03-20T23:32:06.294Z,10.36
2019-03-20T23:34:38.139Z,10.50
2019-03-20T23:37:10.468Z,10.52
2019-03-20T23:39:42.427Z,10.43
2019-03-20T23:42:14.228Z,10.37
2019-03-20T23:44:47.800Z,10.47
2019-03-20T23:47:25.619Z,10.36
2019-03-20T23:49:58.012Z,10.30
2019-03-20T23:52:30.003Z,10.28
2019-03-20T23:55:02.177Z,10.30
2019-03-20T23:57:34.080Z,10.37
